createdAt,value
2023-01-31T00:01:20.512Z,3.30
2023-01-31T00:03:48.248Z,3.00
2023-01-31T00:06:26.369Z,3.20
2023-01-31T00:08:54.157Z,3.20
2023-01-31T00:11:23.623Z,3.90
2023-01-31T00:13:50.631Z,3.20
2023-01-31T00:16:18.784Z,3.30
2023-01-31T00:18:46.103Z,3.20
2023-01-31T00:21:27.318Z,3.30
2023-01-31T00:23:55.435Z,3.30
2023-01-31T00:26:24.537Z,3.30
2023-01-31T00:28:53.226Z,3.30
2023-01-31T00:31:21.539Z,3.20
2023-01-31T00:33:49.526Z,3.20
2023-01-31T00:36:18.947Z,2.90
2023-01-31T00:38:51.568Z,3.20
2023-01-31T00:41:19.955Z,3.20
2023-01-31T00:43:46.676Z,3.20
2023-01-31T00:46:13.253Z,3.20
2023-01-31T00:48:40.044Z,3.20
2023-01-31T00:51:06.677Z,3.20
2023-01-31T00:53:33.420Z,3.30
2023-01-31T00:56:07.587Z,3.30
2023-01-31T00:58:35.038Z,3.40
2023-01-31T01:01:14.334Z,3.40
2023-01-31T01:03:42.450Z,3.30
2023-01-31T01:06:10.529Z,3.50
2023-01-31T01:08:38.779Z,3.50
2023-01-31T01:11:18.148Z,3.50
2023-01-31T01:13:45.762Z,3.60
2023-01-31T01:16:16.418Z,3.60
2023-01-31T01:18:46.363Z,3.60
2023-01-31T01:21:15.397Z,3.60
2023-01-31T01:23:42.935Z,3.60
2023-01-31T01:26:18.284Z,3.70
2023-01-31T01:28:45.584Z,3.70
2023-01-31T01:31:16.224Z,3.70
2023-01-31T01:33:44.512Z,3.70
2023-01-31T01:36:13.292Z,3.70
2023-01-31T01:38:41.299Z,3.70
2023-01-31T01:41:08.876Z,3.80
2023-01-31T01:43:58.706Z,3.80
2023-01-31T01:46:28.267Z,3.80
2023-01-31T01:49:00.675Z,3.80
2023-01-31T01:51:30.000Z,3.80
2023-01-31T01:54:00.095Z,3.80
2023-01-31T01:56:32.460Z,3.80
2023-01-31T01:59:10.315Z,3.80
2023-01-31T02:01:38.596Z,3.80
2023-01-31T02:04:09.453Z,3.70
2023-01-31T02:06:36.389Z,3.80
2023-01-31T02:09:07.739Z,3.80
2023-01-31T02:11:34.381Z,3.80
2023-01-31T02:14:08.668Z,3.80
2023-01-31T02:16:35.929Z,3.80
2023-01-31T02:19:04.835Z,3.80
2023-01-31T02:22:06.731Z,3.70
2023-01-31T02:25:19.520Z,3.70
2023-01-31T02:28:17.988Z,3.70
2023-01-31T02:31:07.411Z,3.70
2023-01-31T02:33:52.663Z,3.80
2023-01-31T02:36:51.180Z,3.80
2023-01-31T02:39:38.476Z,3.80
2023-01-31T02:42:23.145Z,3.80
2023-01-31T02:44:59.830Z,3.80
2023-01-31T02:47:45.181Z,3.80
2023-01-31T02:50:37.712Z,3.80
2023-01-31T02:53:26.822Z,3.80
2023-01-31T02:56:20.405Z,3.70
2023-01-31T02:58:58.675Z,3.70
2023-01-31T03:01:30.993Z,3.60
2023-01-31T03:04:02.654Z,3.50
2023-01-31T03:06:35.908Z,3.30
2023-01-31T03:09:36.625Z,3.30
2023-01-31T03:12:21.795Z,3.20
2023-01-31T03:15:20.778Z,3.20
2023-01-31T03:18:12.386Z,3.10
2023-01-31T03:20:49.969Z,3.10
2023-01-31T03:23:24.746Z,3.00
2023-01-31T03:25:51.710Z,2.90
2023-01-31T03:28:22.746Z,3.00
2023-01-31T03:31:16.488Z,2.90
2023-01-31T03:33:48.267Z,2.90
2023-01-31T03:36:26.772Z,2.90
2023-01-31T03:39:16.003Z,2.80
2023-01-31T03:42:09.796Z,2.70
2023-01-31T03:45:24.458Z,2.80
2023-01-31T03:47:52.418Z,2.80
2023-01-31T03:50:34.623Z,2.80
2023-01-31T03:53:19.653Z,2.80
2023-01-31T03:55:54.308Z,2.80
2023-01-31T03:58:25.357Z,2.70
2023-01-31T04:00:52.863Z,2.70
2023-01-31T04:03:27.634Z,2.70
2023-01-31T04:05:54.605Z,2.60
2023-01-31T04:08:21.377Z,2.60
2023-01-31T04:10:48.319Z,2.60
2023-01-31T04:13:14.887Z,2.60
2023-01-31T04:15:41.509Z,2.60
2023-01-31T04:18:08.074Z,2.50
2023-01-31T04:20:34.650Z,2.30
2023-01-31T04:23:01.438Z,2.50
2023-01-31T04:25:28.010Z,2.50
2023-01-31T04:27:54.703Z,2.40
2023-01-31T04:30:21.414Z,2.40
2023-01-31T04:32:47.990Z,2.40
2023-01-31T04:35:14.684Z,2.40
2023-01-31T04:37:41.223Z,2.10
2023-01-31T04:40:10.050Z,2.40
2023-01-31T04:42:36.624Z,2.30
2023-01-31T04:45:03.874Z,2.30
2023-01-31T04:47:30.549Z,2.30
2023-01-31T04:49:58.092Z,2.50
2023-01-31T04:52:24.891Z,2.40
2023-01-31T04:54:51.428Z,2.40
2023-01-31T04:57:17.970Z,2.50
2023-01-31T04:59:44.512Z,2.40
2023-01-31T05:02:11.114Z,2.10
2023-01-31T05:04:37.683Z,2.40
2023-01-31T05:07:04.254Z,2.40
2023-01-31T05:09:30.792Z,2.40
2023-01-31T05:11:57.383Z,2.60
2023-01-31T05:14:24.021Z,2.40
2023-01-31T05:16:50.596Z,2.40
2023-01-31T05:19:17.610Z,2.40
2023-01-31T05:21:58.869Z,2.40
2023-01-31T05:24:28.598Z,2.40
2023-01-31T05:26:58.820Z,2.50
2023-01-31T05:29:26.828Z,2.40
2023-01-31T05:31:55.119Z,2.50
2023-01-31T05:34:24.092Z,2.50
2023-01-31T05:36:53.558Z,2.50
2023-01-31T05:39:20.429Z,2.60
2023-01-31T05:41:47.100Z,2.60
2023-01-31T05:44:14.417Z,2.70
2023-01-31T05:46:41.089Z,2.70
2023-01-31T05:49:07.782Z,2.70
2023-01-31T05:51:34.344Z,2.80
2023-01-31T05:54:01.008Z,2.80
2023-01-31T05:56:27.820Z,2.90
2023-01-31T05:58:54.588Z,3.00
2023-01-31T06:01:23.160Z,3.00
2023-01-31T06:03:49.785Z,3.00
2023-01-31T06:06:16.780Z,3.10
2023-01-31T06:08:43.469Z,3.20
2023-01-31T06:11:11.568Z,3.20
2023-01-31T06:13:39.114Z,3.20
2023-01-31T06:16:06.309Z,3.30
2023-01-31T06:18:33.123Z,3.30
2023-01-31T06:20:59.892Z,3.30
2023-01-31T06:23:26.528Z,3.40
2023-01-31T06:25:55.209Z,3.40
2023-01-31T06:28:23.034Z,3.40
2023-01-31T06:30:49.909Z,3.40
2023-01-31T06:33:17.306Z,3.50
2023-01-31T06:35:44.001Z,3.50
2023-01-31T06:38:12.456Z,3.50
2023-01-31T06:40:39.108Z,3.50
2023-01-31T06:43:05.714Z,3.50
2023-01-31T06:45:32.864Z,3.50
2023-01-31T06:47:59.649Z,3.50
2023-01-31T06:50:26.211Z,3.50
2023-01-31T06:52:52.750Z,3.50
2023-01-31T06:55:19.667Z,3.60
2023-01-31T06:57:50.163Z,3.40
2023-01-31T07:00:20.850Z,3.60
2023-01-31T07:02:48.117Z,3.60
2023-01-31T07:05:15.198Z,3.30
2023-01-31T07:07:41.799Z,3.60
2023-01-31T07:10:09.133Z,3.60
2023-01-31T07:12:35.682Z,3.60
2023-01-31T07:15:02.770Z,3.60
2023-01-31T07:17:29.312Z,3.70
2023-01-31T07:19:56.134Z,3.70
2023-01-31T07:22:22.710Z,3.70
2023-01-31T07:24:50.933Z,3.90
2023-01-31T07:27:17.944Z,3.70
2023-01-31T07:29:44.803Z,1.90
2023-01-31T07:32:11.399Z,3.80
2023-01-31T07:34:37.987Z,3.80
2023-01-31T07:37:04.623Z,3.80
2023-01-31T07:39:31.283Z,3.80
2023-01-31T07:41:57.842Z,3.80
2023-01-31T07:44:24.612Z,3.90
2023-01-31T07:46:54.272Z,3.80
2023-01-31T07:49:21.013Z,4.00
2023-01-31T07:51:48.141Z,3.90
2023-01-31T07:54:14.998Z,3.90
2023-01-31T07:56:41.687Z,3.90
2023-01-31T07:59:08.512Z,3.90
2023-01-31T08:01:55.422Z,3.90
2023-01-31T08:04:22.970Z,3.90
2023-01-31T08:06:53.343Z,4.00
2023-01-31T08:09:19.933Z,4.00
2023-01-31T08:11:46.543Z,4.00
2023-01-31T08:14:13.203Z,3.90
2023-01-31T08:16:39.879Z,3.80
2023-01-31T08:19:06.437Z,4.00
2023-01-31T08:21:33.145Z,4.00
2023-01-31T08:23:59.924Z,4.00
2023-01-31T08:26:26.629Z,4.00
2023-01-31T08:28:57.013Z,4.10
2023-01-31T08:31:25.563Z,4.10
2023-01-31T08:33:53.344Z,4.10
2023-01-31T08:36:29.535Z,4.10
2023-01-31T08:38:56.341Z,4.10
2023-01-31T08:41:25.052Z,4.10
2023-01-31T08:43:56.823Z,4.10
2023-01-31T08:46:30.824Z,4.10
2023-01-31T08:48:58.250Z,4.10
2023-01-31T08:51:24.988Z,4.20
2023-01-31T08:53:52.176Z,4.20
2023-01-31T08:56:21.216Z,4.20
2023-01-31T08:58:47.992Z,4.20
2023-01-31T09:01:16.891Z,4.30
2023-01-31T09:03:45.548Z,4.20
2023-01-31T09:06:20.215Z,4.20
2023-01-31T09:08:47.259Z,4.20
2023-01-31T09:11:19.443Z,4.30
2023-01-31T09:13:51.308Z,4.20
2023-01-31T09:16:19.534Z,4.30
2023-01-31T09:18:46.368Z,4.30
2023-01-31T09:21:18.712Z,4.40
2023-01-31T09:23:46.308Z,4.40
2023-01-31T09:26:13.982Z,4.40
2023-01-31T09:28:45.200Z,4.40
2023-01-31T09:31:14.591Z,4.30
2023-01-31T09:33:41.868Z,4.40
2023-01-31T09:36:11.375Z,4.40
2023-01-31T09:38:38.020Z,4.40
2023-01-31T09:41:19.547Z,4.40
2023-01-31T09:43:53.149Z,4.40
2023-01-31T09:46:25.700Z,4.50
2023-01-31T09:48:57.198Z,4.60
2023-01-31T09:51:24.491Z,4.50
2023-01-31T09:53:51.208Z,4.60
2023-01-31T09:56:24.507Z,4.70
2023-01-31T09:59:12.892Z,4.70
2023-01-31T10:01:59.503Z,4.80
2023-01-31T10:04:41.866Z,4.90
2023-01-31T10:07:29.505Z,4.90
2023-01-31T10:10:19.289Z,5.00
2023-01-31T10:12:47.525Z,5.00
2023-01-31T10:15:37.605Z,5.00
2023-01-31T10:18:18.448Z,5.10
2023-01-31T10:20:54.344Z,5.10
2023-01-31T10:23:27.983Z,5.20
2023-01-31T10:26:02.483Z,5.20
2023-01-31T10:28:50.957Z,5.20
2023-01-31T10:31:36.620Z,5.10
2023-01-31T10:34:34.699Z,5.10
2023-01-31T10:37:21.162Z,5.10
2023-01-31T10:39:55.517Z,5.10
2023-01-31T10:42:33.148Z,5.00
2023-01-31T10:45:05.946Z,5.00
2023-01-31T10:47:39.251Z,5.00
2023-01-31T10:50:16.498Z,4.90
2023-01-31T10:53:06.751Z,5.00
2023-01-31T10:56:01.491Z,5.00
2023-01-31T10:58:28.125Z,5.10
2023-01-31T11:00:55.243Z,5.20
2023-01-31T11:03:22.424Z,5.20
2023-01-31T11:05:51.901Z,5.20
2023-01-31T11:08:34.869Z,5.30
2023-01-31T11:11:10.180Z,5.30
2023-01-31T11:13:37.177Z,5.30
2023-01-31T11:16:07.133Z,5.40
2023-01-31T11:18:38.015Z,5.40
2023-01-31T11:21:06.197Z,5.40
2023-01-31T11:23:35.807Z,5.30
2023-01-31T11:26:03.254Z,5.30
2023-01-31T11:28:40.618Z,5.40
2023-01-31T11:31:17.460Z,5.40
2023-01-31T11:33:45.996Z,5.50
2023-01-31T11:36:23.052Z,5.50
2023-01-31T11:38:50.741Z,5.50
2023-01-31T11:41:32.154Z,5.40
2023-01-31T11:44:10.728Z,5.40
2023-01-31T11:46:44.095Z,5.40
2023-01-31T11:49:13.801Z,5.40
2023-01-31T11:51:40.925Z,5.40
2023-01-31T11:54:07.642Z,5.40
2023-01-31T11:56:37.476Z,5.40
2023-01-31T11:59:08.326Z,3.80
2023-01-31T12:01:43.930Z,5.40
2023-01-31T12:04:25.945Z,5.40
2023-01-31T12:07:20.408Z,5.40
2023-01-31T12:09:48.150Z,5.40
2023-01-31T12:12:33.805Z,5.50
2023-01-31T12:15:12.928Z,5.40
2023-01-31T12:17:46.292Z,5.40
2023-01-31T12:20:32.841Z,5.40
2023-01-31T12:23:35.156Z,5.30
2023-01-31T12:26:07.239Z,5.20
2023-01-31T12:28:59.359Z,5.30
2023-01-31T12:31:51.361Z,5.20
2023-01-31T12:35:00.823Z,5.10
2023-01-31T12:37:57.971Z,5.00
2023-01-31T12:40:35.722Z,5.20
2023-01-31T12:43:27.744Z,4.90
2023-01-31T12:46:09.718Z,5.00
2023-01-31T12:48:41.691Z,4.90
2023-01-31T12:51:12.494Z,4.80
2023-01-31T12:54:02.429Z,4.90
2023-01-31T12:57:04.311Z,4.90
2023-01-31T12:59:55.109Z,4.80
2023-01-31T13:03:03.540Z,4.70
2023-01-31T13:05:56.375Z,4.70
2023-01-31T13:08:28.789Z,4.60
2023-01-31T13:11:03.529Z,4.60
2023-01-31T13:13:37.401Z,4.50
2023-01-31T13:16:20.035Z,4.50
2023-01-31T13:18:49.256Z,4.40
2023-01-31T13:21:19.915Z,4.50
2023-01-31T13:23:58.435Z,4.50
2023-01-31T13:26:31.417Z,4.50
2023-01-31T13:29:06.211Z,4.50
2023-01-31T13:31:40.160Z,4.50
2023-01-31T13:34:17.196Z,4.50
2023-01-31T13:36:48.554Z,4.50
2023-01-31T13:39:23.726Z,4.50
2023-01-31T13:41:50.902Z,4.50
2023-01-31T13:44:17.905Z,4.50
2023-01-31T13:46:58.147Z,4.50
2023-01-31T13:49:41.667Z,4.50
2023-01-31T13:52:27.780Z,4.50
2023-01-31T13:55:00.045Z,4.40
2023-01-31T13:57:46.968Z,4.50
2023-01-31T14:00:47.170Z,4.50
2023-01-31T14:03:19.369Z,4.50
2023-01-31T14:05:59.566Z,4.60
2023-01-31T14:08:49.838Z,4.50
2023-01-31T14:11:21.977Z,4.50
2023-01-31T14:13:52.866Z,4.50
2023-01-31T14:16:43.927Z,4.50
2023-01-31T14:19:19.622Z,4.50
2023-01-31T14:21:53.365Z,4.50
2023-01-31T14:24:41.722Z,4.50
2023-01-31T14:27:19.780Z,4.50
2023-01-31T14:30:04.553Z,4.50
2023-01-31T14:32:40.756Z,4.50
2023-01-31T14:35:13.314Z,4.50
2023-01-31T14:37:59.234Z,4.50
2023-01-31T14:40:45.264Z,4.50
2023-01-31T14:43:30.639Z,4.60
2023-01-31T14:46:12.217Z,4.60
2023-01-31T14:49:06.445Z,4.60
2023-01-31T14:52:09.783Z,4.60
2023-01-31T14:55:02.086Z,4.60
2023-01-31T14:57:39.858Z,4.60
2023-01-31T15:00:22.910Z,4.60
2023-01-31T15:03:00.862Z,4.60
2023-01-31T15:05:37.403Z,4.60
2023-01-31T15:08:26.704Z,4.70
2023-01-31T15:11:06.584Z,4.70
2023-01-31T15:13:49.582Z,4.70
2023-01-31T15:16:22.020Z,4.70
2023-01-31T15:19:12.210Z,4.70
2023-01-31T15:21:51.188Z,4.80
2023-01-31T15:24:36.080Z,4.80
2023-01-31T15:27:07.610Z,4.80
2023-01-31T15:29:52.271Z,4.80
2023-01-31T15:32:43.545Z,4.80
2023-01-31T15:35:23.972Z,4.80
2023-01-31T15:38:01.620Z,4.90
2023-01-31T15:40:28.829Z,4.90
2023-01-31T15:43:16.421Z,4.90
2023-01-31T15:45:43.016Z,4.90
2023-01-31T15:48:15.655Z,4.90
2023-01-31T15:50:54.656Z,4.90
2023-01-31T15:53:24.013Z,4.90
2023-01-31T15:55:53.231Z,4.90
2023-01-31T15:58:23.060Z,4.90
2023-01-31T16:00:52.506Z,4.90
2023-01-31T16:03:22.668Z,5.00
2023-01-31T16:05:52.449Z,5.00
2023-01-31T16:08:35.272Z,5.00
2023-01-31T16:11:08.237Z,5.00
2023-01-31T16:13:39.530Z,5.10
2023-01-31T16:16:10.437Z,5.10
2023-01-31T16:18:38.172Z,5.10
2023-01-31T16:21:26.328Z,5.10
2023-01-31T16:24:13.207Z,5.10
2023-01-31T16:26:48.049Z,5.20
2023-01-31T16:29:17.847Z,5.20
2023-01-31T16:31:48.822Z,5.20
2023-01-31T16:34:28.854Z,5.00
2023-01-31T16:37:00.008Z,5.20
2023-01-31T16:39:43.180Z,5.30
2023-01-31T16:42:25.777Z,5.30
2023-01-31T16:44:52.503Z,5.30
2023-01-31T16:47:46.259Z,5.30
2023-01-31T16:50:32.775Z,5.40
2023-01-31T16:53:28.786Z,5.30
2023-01-31T16:56:13.443Z,5.40
2023-01-31T16:58:48.024Z,5.40
2023-01-31T17:01:18.737Z,5.40
2023-01-31T17:03:47.554Z,5.40
2023-01-31T17:06:22.212Z,5.40
2023-01-31T17:08:48.909Z,5.40
2023-01-31T17:11:34.200Z,5.40
2023-01-31T17:14:05.031Z,5.50
2023-01-31T17:16:31.666Z,5.40
2023-01-31T17:18:58.234Z,5.50
2023-01-31T17:21:28.307Z,5.40
2023-01-31T17:23:54.893Z,5.40
2023-01-31T17:26:23.302Z,5.40
2023-01-31T17:29:00.821Z,5.40
2023-01-31T17:31:29.570Z,5.40
2023-01-31T17:33:56.662Z,5.50
2023-01-31T17:36:24.006Z,5.40
2023-01-31T17:38:52.035Z,5.50
2023-01-31T17:41:23.100Z,5.50
2023-01-31T17:43:50.068Z,5.50
2023-01-31T17:46:19.195Z,5.50
2023-01-31T17:48:45.841Z,5.50
2023-01-31T17:51:12.983Z,5.50
2023-01-31T17:53:49.365Z,5.60
2023-01-31T17:56:18.391Z,5.60
2023-01-31T17:58:45.156Z,5.60
2023-01-31T18:01:14.541Z,5.60
2023-01-31T18:03:42.068Z,5.60
2023-01-31T18:06:09.911Z,5.70
2023-01-31T18:08:37.230Z,5.70
2023-01-31T18:11:09.805Z,5.70
2023-01-31T18:13:38.124Z,5.40
2023-01-31T18:16:14.652Z,5.80
2023-01-31T18:18:44.079Z,5.80
2023-01-31T18:21:15.836Z,5.80
2023-01-31T18:23:44.741Z,5.80
2023-01-31T18:26:15.081Z,5.80
2023-01-31T18:28:43.988Z,5.90
2023-01-31T18:31:15.914Z,6.00
2023-01-31T18:33:45.187Z,6.00
2023-01-31T18:36:14.986Z,6.00
2023-01-31T18:38:44.061Z,6.00
2023-01-31T18:41:14.365Z,5.90
2023-01-31T18:43:43.937Z,6.00
2023-01-31T18:46:17.728Z,6.00
2023-01-31T18:48:47.739Z,6.00
2023-01-31T18:51:19.215Z,6.00
2023-01-31T18:53:50.216Z,6.10
2023-01-31T18:56:23.571Z,6.10
2023-01-31T18:58:56.255Z,6.10
2023-01-31T19:01:29.470Z,6.10
2023-01-31T19:03:59.842Z,6.20
2023-01-31T19:06:31.656Z,6.20
2023-01-31T19:09:00.164Z,6.20
2023-01-31T19:11:30.353Z,6.20
2023-01-31T19:13:59.957Z,6.20
2023-01-31T19:16:29.957Z,6.20
2023-01-31T19:18:59.822Z,6.20
2023-01-31T19:21:29.984Z,6.30
2023-01-31T19:24:02.441Z,6.00
2023-01-31T19:26:32.043Z,5.20
2023-01-31T19:29:01.376Z,4.60
2023-01-31T19:31:31.347Z,4.40
2023-01-31T19:34:03.612Z,4.30
2023-01-31T19:36:33.800Z,4.20
2023-01-31T19:39:04.586Z,4.20
2023-01-31T19:41:33.965Z,4.20
2023-01-31T19:44:02.888Z,4.20
2023-01-31T19:46:37.345Z,4.20
2023-01-31T19:49:05.990Z,4.30
2023-01-31T19:51:34.377Z,4.30
2023-01-31T19:54:02.964Z,4.40
2023-01-31T19:56:30.792Z,4.50
2023-01-31T19:58:58.226Z,4.50
2023-01-31T20:01:25.499Z,4.60
2023-01-31T20:03:55.452Z,4.60
2023-01-31T20:06:26.118Z,4.60
2023-01-31T20:08:57.136Z,4.50
2023-01-31T20:11:26.675Z,4.50
2023-01-31T20:13:59.223Z,4.50
2023-01-31T20:16:29.277Z,4.40
2023-01-31T20:18:57.102Z,4.40
2023-01-31T20:21:25.966Z,4.40
2023-01-31T20:23:58.691Z,4.30
2023-01-31T20:26:31.621Z,4.20
2023-01-31T20:28:58.919Z,4.20
2023-01-31T20:31:27.018Z,4.20
2023-01-31T20:34:02.701Z,4.20
2023-01-31T20:36:32.332Z,4.20
2023-01-31T20:39:01.124Z,4.20
2023-01-31T20:41:34.975Z,4.20
2023-01-31T20:44:02.832Z,4.10
2023-01-31T20:46:33.303Z,4.10
2023-01-31T20:49:04.327Z,5.70
2023-01-31T20:51:34.487Z,4.10
2023-01-31T20:56:59.784Z,4.00
2023-01-31T20:59:36.948Z,4.00
2023-01-31T21:02:06.345Z,4.00
2023-01-31T21:04:43.203Z,4.10
2023-01-31T21:07:18.236Z,4.10
2023-01-31T21:09:50.576Z,4.20
2023-01-31T21:12:23.568Z,4.20
2023-01-31T21:15:00.432Z,4.30
2023-01-31T21:17:41.531Z,4.30
2023-01-31T21:20:15.255Z,4.30
2023-01-31T21:22:55.085Z,4.40
2023-01-31T21:25:25.499Z,4.40
2023-01-31T21:27:58.046Z,4.50
2023-01-31T21:30:29.296Z,4.50
2023-01-31T21:32:57.473Z,4.60
2023-01-31T21:35:29.073Z,4.70
2023-01-31T21:37:59.568Z,4.70
2023-01-31T21:40:26.481Z,4.80
2023-01-31T21:42:57.961Z,4.80
2023-01-31T21:45:40.456Z,4.70
2023-01-31T21:48:28.896Z,4.30
2023-01-31T21:50:59.276Z,4.10
2023-01-31T21:53:29.158Z,3.70
2023-01-31T21:56:07.108Z,3.50
2023-01-31T21:58:37.023Z,3.40
2023-01-31T22:01:05.999Z,3.30
2023-01-31T22:03:35.897Z,3.30
2023-01-31T22:06:12.804Z,3.20
2023-01-31T22:08:40.471Z,3.20
2023-01-31T22:11:15.308Z,3.10
2023-01-31T22:13:52.236Z,3.20
2023-01-31T22:16:24.035Z,3.10
2023-01-31T22:18:53.956Z,3.10
2023-01-31T22:21:31.057Z,3.00
2023-01-31T22:24:00.367Z,3.00
2023-01-31T22:26:46.047Z,3.00
2023-01-31T22:29:25.997Z,3.00
2023-01-31T22:32:05.875Z,2.90
2023-01-31T22:34:47.597Z,2.90
2023-01-31T22:37:37.090Z,2.90
2023-01-31T22:40:22.349Z,3.00
2023-01-31T22:43:01.635Z,3.00
2023-01-31T22:45:35.098Z,3.10
2023-01-31T22:48:06.848Z,3.20
2023-01-31T22:50:37.278Z,3.20
2023-01-31T22:53:16.227Z,3.20
2023-01-31T22:55:47.793Z,3.20
2023-01-31T22:58:21.974Z,3.20
2023-01-31T23:01:08.601Z,3.30
2023-01-31T23:03:37.785Z,3.30
2023-01-31T23:06:12.217Z,3.30
2023-01-31T23:08:47.056Z,3.40
2023-01-31T23:11:16.498Z,3.40
2023-01-31T23:13:43.985Z,3.50
2023-01-31T23:16:16.694Z,3.60
2023-01-31T23:18:43.374Z,3.70
2023-01-31T23:21:12.644Z,3.70
2023-01-31T23:23:39.430Z,3.80
2023-01-31T23:26:06.443Z,3.90
2023-01-31T23:28:33.053Z,4.00
2023-01-31T23:30:59.751Z,3.80
2023-01-31T23:33:26.652Z,3.90
2023-01-31T23:35:53.233Z,5.70
2023-01-31T23:38:20.057Z,4.00
2023-01-31T23:40:54.155Z,3.70
2023-01-31T23:43:21.737Z,4.10
2023-01-31T23:45:48.855Z,4.10
2023-01-31T23:48:15.708Z,4.10
2023-01-31T23:50:42.335Z,4.10
2023-01-31T23:53:09.008Z,4.10
2023-01-31T23:55:35.612Z,4.20
2023-01-31T23:58:02.245Z,4.20
